Time;durP1;ratioP1;P1;durP2;ratioP2;P2;SDS_P1;SDS_P2;PMS_P1;PMS_P2;Temp;Humidity;BMP_temperature;BMP_pressure;BME280_temperature;BME280_humidity;BME280_pressure;Samples;Min_cycle;Max_cycle;Signal;HPM_P1;HPM_P2
2022/06/10 00:00:42;;;;;;;;;2.80;1.60;;;;;16.92;54.28;99648.66;5070142;28;46324;-61
2022/06/10 00:03:09;;;;;;;;;3.40;2.60;;;;;16.92;54.17;99657.50;5071021;28;45246;-61
2022/06/10 00:05:36;;;;;;;;;4.00;2.75;;;;;16.92;54.48;99657.50;5072333;28;45432;-61
2022/06/10 00:08:04;;;;;;;;;2.00;2.00;;;;;16.91;54.41;99647.81;5068843;28;45399;-61
2022/06/10 00:10:30;;;;;;;;;2.60;1.20;;;;;16.92;54.02;99656.66;5067568;28;45518;-62
2022/06/10 00:12:55;;;;;;;;;1.75;1.75;;;;;16.91;54.62;99654.94;5066254;28;45409;-61
2022/06/10 00:15:21;;;;;;;;;1.00;1.00;;;;;16.89;55.47;99657.69;5070672;28;45392;-62
2022/06/10 00:17:46;;;;;;;;;2.00;2.00;;;;;16.78;55.75;99662.75;5066366;28;45428;-61
2022/06/10 00:20:15;;;;;;;;;1.00;1.00;;;;;16.66;55.49;99656.31;5068401;28;45804;-61
2022/06/10 00:22:40;;;;;;;;;2.20;1.80;;;;;16.60;55.95;99651.28;5069155;28;45501;-61
2022/06/10 00:25:06;;;;;;;;;2.00;2.00;;;;;16.55;55.79;99650.72;5063607;28;45854;-61
2022/06/10 00:27:32;;;;;;;;;1.00;1.00;;;;;16.49;56.00;99659.03;5072553;28;45370;-61
2022/06/10 00:29:57;;;;;;;;;2.00;2.00;;;;;16.42;56.18;99654.16;5070022;28;46365;-61
2022/06/10 00:32:23;;;;;;;;;1.00;1.00;;;;;16.39;55.85;99656.03;5073235;28;45450;-61
2022/06/10 00:34:48;;;;;;;;;1.25;1.25;;;;;16.37;55.54;99655.25;5072312;28;45435;-61
2022/06/10 00:37:14;;;;;;;;;2.00;2.00;;;;;16.38;55.88;99650.78;5071733;28;45605;-62
2022/06/10 00:39:39;;;;;;;;;1.50;1.50;;;;;16.36;56.21;99652.69;5066650;28;46307;-61
2022/06/10 00:42:07;;;;;;;;;1.75;1.75;;;;;16.39;56.33;99657.84;5068988;28;45547;-62
2022/06/10 00:44:38;;;;;;;;;2.00;2.00;;;;;16.40;56.04;99651.56;5068199;28;45572;-61
2022/06/10 00:47:13;;;;;;;;;4.50;3.00;;;;;16.40;56.12;99652.44;5067695;28;45602;-61
2022/06/10 00:49:39;;;;;;;;;3.75;3.75;;;;;16.40;56.60;99649.78;5062670;28;45364;-62
2022/06/10 00:52:15;;;;;;;;;3.40;1.80;;;;;16.40;57.36;99649.78;5071231;28;45423;-61
2022/06/10 00:54:44;;;;;;;;;2.50;1.75;;;;;16.36;58.18;99656.19;5072800;28;45468;-61
2022/06/10 00:57:19;;;;;;;;;2.00;1.00;;;;;16.26;57.80;99654.97;5068725;28;45534;-61
2022/06/10 00:59:49;;;;;;;;;1.75;1.75;;;;;16.20;57.47;99652.66;5073847;28;47140;-61
2022/06/10 01:02:19;;;;;;;;;2.80;1.00;;;;;16.18;58.26;99651.03;5069222;28;45620;-61
2022/06/10 01:04:45;;;;;;;;;1.00;1.00;;;;;16.10;57.56;99654.09;5074343;28;45561;-61
2022/06/10 01:07:14;;;;;;;;;1.00;1.00;;;;;16.00;57.27;99655.53;5068099;28;45504;-62
2022/06/10 01:09:41;;;;;;;;;2.50;1.00;;;;;15.88;58.15;99665.03;5072583;28;46364;-61
2022/06/10 01:12:06;;;;;;;;;4.75;2.25;;;;;15.78;58.34;99658.47;5055522;28;45470;-61
2022/06/10 01:14:35;;;;;;;;;1.75;1.75;;;;;15.70;57.75;99660.69;5075688;28;45387;-62
2022/06/10 01:17:45;;;;;;;;;3.00;2.00;;;;;15.62;58.67;99657.56;5069551;28;45360;-62
2022/06/10 01:20:19;;;;;;;;;0.50;0.50;;;;;15.51;58.96;99657.22;5070257;28;46740;-61
2022/06/10 01:23:03;;;;;;;;;2.20;2.20;;;;;15.46;59.05;99661.91;5077260;28;45356;-61
2022/06/10 01:26:13;;;;;;;;;1.25;1.25;;;;;15.43;59.27;99662.91;5072861;28;45494;-61
2022/06/10 01:28:44;;;;;;;;;0.50;0.50;;;;;15.38;59.24;99659.66;5071669;28;45473;-61
2022/06/10 01:31:19;;;;;;;;;2.00;1.50;;;;;15.35;59.27;99657.16;5070627;28;45522;-61
2022/06/10 01:34:24;;;;;;;;;1.60;1.60;;;;;15.35;58.74;99658.00;5077356;28;45417;-61
2022/06/10 01:37:01;;;;;;;;;2.75;2.00;;;;;15.34;59.49;99653.63;5051654;28;45405;-61
2022/06/10 01:39:35;;;;;;;;;4.00;2.00;;;;;15.34;59.40;99653.63;5073545;28;45447;-62
2022/06/10 01:42:39;;;;;;;;;3.00;3.00;;;;;15.35;60.12;99665.13;5073093;28;46661;-61
2022/06/10 01:45:33;;;;;;;;;3.00;2.60;;;;;15.35;60.19;99663.31;5060237;28;45409;-64
2022/06/10 01:48:05;;;;;;;;;1.25;1.25;;;;;15.47;59.53;99664.50;5074745;28;45526;-64
2022/06/10 01:50:39;;;;;;;;;2.50;2.50;;;;;15.59;60.33;99663.03;5066357;28;45375;-64
2022/06/10 01:53:13;;;;;;;;;3.00;2.00;;;;;15.62;60.74;99662.88;5055962;28;46658;-64
2022/06/10 01:55:39;;;;;;;;;0.40;0.40;;;;;15.53;59.83;99661.53;5066196;28;45525;-61
2022/06/10 01:58:19;;;;;;;;;1.50;0.50;;;;;15.43;59.61;99656.75;5067069;28;45642;-61
2022/06/10 02:00:47;;;;;;;;;3.00;3.00;;;;;15.32;60.60;99655.50;5068456;28;45592;-61
2022/06/10 02:03:16;;;;;;;;;3.75;2.50;;;;;15.28;60.45;99659.25;5064935;28;45484;-61
2022/06/10 02:05:57;;;;;;;;;3.00;2.60;;;;;15.26;61.00;99658.47;5045504;28;45648;-61
2022/06/10 02:08:29;;;;;;;;;2.00;2.00;;;;;15.25;61.05;99662.06;5069678;28;45456;-61
2022/06/10 02:11:03;;;;;;;;;3.50;3.50;;;;;15.23;61.92;99656.00;5068194;28;45478;-61
2022/06/10 02:13:34;;;;;;;;;2.25;2.25;;;;;15.20;62.28;99658.78;5063110;28;46267;-61
2022/06/10 02:16:02;;;;;;;;;5.00;3.80;;;;;15.15;62.42;99667.91;5073138;28;45486;-61
2022/06/10 02:19:00;;;;;;;;;7.25;7.25;;;;;15.06;62.60;99669.25;5057373;28;45472;-61
2022/06/10 02:21:37;;;;;;;;;4.50;3.00;;;;;15.02;62.43;99678.28;5069627;28;45529;-61
2022/06/10 02:24:14;;;;;;;;;6.25;4.75;;;;;15.00;62.89;99680.16;5062002;28;45444;-61
2022/06/10 02:26:40;;;;;;;;;2.00;2.00;;;;;14.98;62.82;99674.94;5072692;28;45460;-61
2022/06/10 02:29:17;;;;;;;;;3.75;3.75;;;;;14.97;63.03;99673.22;5074604;28;45388;-61
2022/06/10 02:31:47;;;;;;;;;4.00;3.25;;;;;14.97;63.00;99675.00;5070070;28;45535;-61
2022/06/10 02:34:13;;;;;;;;;2.00;2.00;;;;;14.95;63.10;99680.38;5073071;28;45631;-61
2022/06/10 02:37:38;;;;;;;;;3.50;3.50;;;;;14.91;62.92;99684.13;5069529;28;45521;-61
2022/06/10 02:40:03;;;;;;;;;4.50;2.50;;;;;14.86;63.25;99682.63;5005499;28;45583;-61
2022/06/10 02:42:50;;;;;;;;;2.75;2.00;;;;;14.81;63.62;99690.81;5067383;28;45473;-61
2022/06/10 02:45:42;;;;;;;;;3.00;2.00;;;;;14.80;63.67;99688.22;5057844;28;45495;-61
2022/06/10 02:48:39;;;;;;;;;3.20;2.20;;;;;14.77;63.81;99686.59;5074492;28;45470;-61
2022/06/10 02:51:05;;;;;;;;;3.25;2.75;;;;;14.72;64.03;99687.75;5036392;28;45423;-60
2022/06/10 02:53:30;;;;;;;;;3.00;3.00;;;;;14.66;64.07;99692.41;5073544;28;45396;-61
2022/06/10 02:55:56;;;;;;;;;4.00;4.00;;;;;14.62;63.79;99693.47;5065899;28;45435;-61
2022/06/10 03:01:35;;;;;;;;;4.25;4.00;;;;;14.61;64.11;99690.91;5066874;28;45542;-61
2022/06/10 03:04:21;;;;;;;;;2.00;2.00;;;;;14.59;64.74;99703.38;5068570;28;45360;-61
2022/06/10 03:06:56;;;;;;;;;6.00;2.25;;;;;14.55;64.84;99692.06;5070241;28;45511;-61
2022/06/10 03:09:40;;;;;;;;;4.50;3.25;;;;;14.56;64.71;99698.25;5069058;28;45578;-61
2022/06/10 03:12:21;;;;;;;;;4.00;4.00;;;;;14.53;65.11;99703.69;5065092;28;45455;-61
2022/06/10 03:15:07;;;;;;;;;3.75;3.25;;;;;14.44;65.31;99704.97;5067987;28;45484;-61
2022/06/10 03:17:33;;;;;;;;;5.50;4.25;;;;;14.39;65.21;99706.94;5056963;28;46137;-61
2022/06/10 03:20:32;;;;;;;;;2.25;2.00;;;;;14.40;65.55;99713.13;5070600;28;45956;-61
2022/06/10 03:23:41;;;;;;;;;4.00;4.00;;;;;14.42;64.94;99713.91;5056799;28;45372;-61
2022/06/10 03:26:20;;;;;;;;;2.25;2.00;;;;;14.45;64.99;99711.13;5042227;28;45519;-61
2022/06/10 03:28:57;;;;;;;;;3.50;3.00;;;;;14.48;64.79;99708.34;5062153;28;46263;-61
2022/06/10 03:31:38;;;;;;;;;4.20;4.20;;;;;14.52;64.37;99716.09;5067775;28;45337;-61
2022/06/10 03:34:37;;;;;;;;;2.50;2.50;;;;;14.55;64.43;99709.78;5074211;28;45458;-61
2022/06/10 03:37:05;;;;;;;;;2.75;1.25;;;;;14.60;64.38;99718.38;5049411;28;45450;-61
2022/06/10 03:39:31;;;;;;;;;4.50;2.25;;;;;14.64;64.18;99719.97;5070610;28;46175;-61
2022/06/10 03:42:05;;;;;;;;;2.00;2.00;;;;;14.70;64.14;99721.47;5064967;28;45509;-61
2022/06/10 03:44:32;;;;;;;;;5.75;4.00;;;;;14.74;64.41;99728.34;5049245;28;45531;-61
2022/06/10 03:46:58;;;;;;;;;4.50;3.75;;;;;14.70;64.42;99727.63;5063770;28;45511;-61
2022/06/10 03:49:55;;;;;;;;;4.75;3.25;;;;;14.68;64.75;99731.28;5064154;28;46605;-61
2022/06/10 03:52:24;;;;;;;;;4.00;2.25;;;;;14.66;64.76;99729.56;5064245;28;45373;-61
2022/06/10 03:54:50;;;;;;;;;4.00;4.00;;;;;14.69;64.81;99736.53;5065602;28;45511;-61
2022/06/10 03:57:17;;;;;;;;;3.75;3.75;;;;;14.69;64.77;99725.91;5046901;28;45580;-61
2022/06/10 03:59:42;;;;;;;;;2.75;2.75;;;;;14.71;64.67;99728.50;5050929;28;47177;-61
2022/06/10 04:02:08;;;;;;;;;5.75;4.25;;;;;14.71;64.53;99729.34;5068279;28;45613;-64
2022/06/10 04:04:33;;;;;;;;;5.50;3.75;;;;;14.74;64.65;99729.22;5068555;28;45533;-60
2022/06/10 04:06:59;;;;;;;;;4.00;3.00;;;;;14.77;64.35;99737.00;5065192;28;45494;-59
2022/06/10 04:09:24;;;;;;;;;3.00;3.00;;;;;14.79;64.37;99731.63;5067776;28;45717;-60
2022/06/10 04:11:50;;;;;;;;;5.00;4.25;;;;;14.81;64.48;99729.78;5065796;28;45388;-60
2022/06/10 04:14:15;;;;;;;;;4.00;4.00;;;;;14.82;64.33;99729.69;5072641;28;45465;-60
2022/06/10 04:16:40;;;;;;;;;3.25;3.25;;;;;14.84;64.38;99732.28;5063549;28;45564;-62
2022/06/10 04:19:06;;;;;;;;;3.00;3.00;;;;;14.86;64.21;99733.06;5065733;28;46209;-60
2022/06/10 04:21:32;;;;;;;;;2.00;2.00;;;;;14.88;64.31;99731.22;5069519;28;45492;-63
2022/06/10 04:23:57;;;;;;;;;3.75;3.75;;;;;14.89;64.31;99732.94;5073512;28;45501;-61
2022/06/10 04:26:23;;;;;;;;;3.00;3.00;;;;;14.89;64.67;99731.16;5071132;28;45709;-59
2022/06/10 04:28:49;;;;;;;;;3.75;2.25;;;;;14.91;64.27;99733.72;5076556;28;46276;-59
2022/06/10 04:31:14;;;;;;;;;3.40;3.40;;;;;14.90;64.60;99730.22;5069947;28;45485;-59
2022/06/10 04:33:40;;;;;;;;;4.25;4.25;;;;;14.88;64.52;99729.41;5065696;28;45408;-59
2022/06/10 04:36:07;;;;;;;;;2.00;2.00;;;;;14.90;64.53;99740.84;5043700;28;45585;-59
2022/06/10 04:38:32;;;;;;;;;2.25;1.50;;;;;14.91;64.45;99742.53;5076525;28;46115;-59
2022/06/10 04:40:58;;;;;;;;;4.00;3.75;;;;;14.93;64.60;99739.78;5066711;28;45471;-59
2022/06/10 04:43:23;;;;;;;;;6.25;2.50;;;;;14.93;64.45;99742.44;5067556;28;45471;-59
2022/06/10 04:45:53;;;;;;;;;3.50;3.00;;;;;14.94;64.68;99746.81;5068783;28;45593;-59
2022/06/10 04:48:19;;;;;;;;;2.25;2.00;;;;;14.97;64.58;99749.34;5075842;28;46344;-59
2022/06/10 04:50:47;;;;;;;;;4.00;4.00;;;;;14.99;64.49;99744.81;5066454;28;45516;-59
2022/06/10 04:53:12;;;;;;;;;2.50;2.50;;;;;15.00;64.57;99754.50;5065069;28;45466;-59
2022/06/10 04:55:38;;;;;;;;;3.75;3.75;;;;;15.02;64.75;99760.63;5051670;28;45488;-59
2022/06/10 04:58:04;;;;;;;;;2.00;2.00;;;;;15.06;64.33;99756.88;5071022;28;45688;-59
2022/06/10 05:00:33;;;;;;;;;4.20;3.80;;;;;15.07;64.82;99769.22;5067847;28;45467;-59
2022/06/10 05:02:59;;;;;;;;;3.00;2.75;;;;;15.09;64.30;99771.78;5079830;27;45403;-59
2022/06/10 05:05:26;;;;;;;;;4.00;3.00;;;;;15.09;64.46;99762.03;5072616;27;45487;-59
2022/06/10 05:07:51;;;;;;;;;3.75;3.75;;;;;15.10;64.31;99758.44;5072490;28;46513;-59
2022/06/10 05:10:18;;;;;;;;;2.50;2.25;;;;;15.10;64.43;99766.41;5071609;28;45454;-59
2022/06/10 05:12:47;;;;;;;;;6.00;3.75;;;;;15.12;64.35;99761.03;5073097;28;45525;-59
2022/06/10 05:15:20;;;;;;;;;5.50;4.00;;;;;15.14;64.47;99764.47;5070566;28;45464;-59
2022/06/10 05:17:46;;;;;;;;;4.00;3.00;;;;;15.14;64.46;99760.00;5065180;28;47102;-58
2022/06/10 05:20:18;;;;;;;;;4.50;3.75;;;;;15.14;64.42;99765.31;5073895;28;45442;-59
2022/06/10 05:22:43;;;;;;;;;4.00;4.00;;;;;15.15;64.46;99761.75;5075604;28;45373;-59
2022/06/10 05:25:11;;;;;;;;;4.50;3.00;;;;;15.18;64.59;99763.38;5072297;28;45572;-59
2022/06/10 05:27:36;;;;;;;;;5.25;4.00;;;;;15.19;64.78;99762.47;5075102;28;46771;-59
2022/06/10 05:30:04;;;;;;;;;5.00;4.25;;;;;15.22;64.54;99762.31;5069498;28;45453;-59
2022/06/10 05:32:29;;;;;;;;;3.00;3.00;;;;;15.25;64.47;99756.81;5074920;28;45459;-59
2022/06/10 05:34:55;;;;;;;;;5.25;3.25;;;;;15.27;64.17;99762.94;5071242;28;45578;-59
2022/06/10 05:37:26;;;;;;;;;4.75;3.50;;;;;15.32;64.41;99766.22;5071736;28;46412;-59
2022/06/10 05:39:52;;;;;;;;;5.25;5.25;;;;;15.35;64.25;99760.78;5059730;28;45483;-59
2022/06/10 05:42:18;;;;;;;;;2.75;1.50;;;;;15.37;63.99;99761.56;5065591;28;45330;-59
2022/06/10 05:44:46;;;;;;;;;4.25;3.00;;;;;15.39;64.36;99761.47;5071253;28;45548;-59
2022/06/10 05:47:15;;;;;;;;;4.00;4.00;;;;;15.44;64.45;99754.13;5049707;28;45508;-59
2022/06/10 05:49:46;;;;;;;;;4.80;4.80;;;;;15.50;64.28;99760.00;5072541;28;45571;-59
2022/06/10 05:52:13;;;;;;;;;5.75;3.75;;;;;15.53;64.26;99753.69;5065502;28;45531;-59
2022/06/10 05:54:42;;;;;;;;;4.25;3.50;;;;;15.57;64.18;99757.94;5070790;28;45568;-59
2022/06/10 05:57:08;;;;;;;;;7.25;4.25;;;;;15.60;64.09;99755.09;5061167;28;46665;-59
2022/06/10 05:59:34;;;;;;;;;3.50;3.50;;;;;15.65;64.10;99761.06;5062881;28;45447;-59
2022/06/10 06:02:02;;;;;;;;;4.50;3.50;;;;;15.70;64.49;99753.72;5071502;28;45348;-59
2022/06/10 06:04:29;;;;;;;;;4.50;3.50;;;;;15.77;63.88;99755.09;5064857;28;45720;-59
2022/06/10 06:06:54;;;;;;;;;2.50;2.50;;;;;15.81;63.60;99758.47;5073725;28;45497;-59
2022/06/10 06:09:20;;;;;;;;;51.67;41.67;;;;;15.84;63.78;99759.19;5064118;28;45371;-59
2022/06/10 06:11:48;;;;;;;;;5.00;4.25;;;;;15.86;63.82;99749.34;5070605;28;45427;-59
2022/06/10 06:14:14;;;;;;;;;5.25;3.50;;;;;15.90;63.68;99745.59;5074210;28;45423;-59
2022/06/10 06:16:40;;;;;;;;;4.00;3.50;;;;;15.96;63.53;99744.38;5069239;28;46963;-60
2022/06/10 06:19:06;;;;;;;;;4.75;3.75;;;;;16.00;63.57;99744.16;5075420;28;45546;-59
2022/06/10 06:21:31;;;;;;;;;5.75;4.25;;;;;16.04;63.03;99739.53;5072228;28;45542;-59
2022/06/10 06:23:58;;;;;;;;;5.50;4.50;;;;;16.09;63.25;99741.97;5055854;28;45528;-59
2022/06/10 06:26:24;;;;;;;;;4.75;3.75;;;;;16.12;63.53;99734.66;5071857;28;45380;-59
2022/06/10 06:28:49;;;;;;;;;4.00;1.75;;;;;16.18;62.92;99738.81;5074739;28;45483;-60
2022/06/10 06:31:15;;;;;;;;;3.25;2.00;;;;;16.23;62.74;99734.97;5068525;28;45756;-61
2022/06/10 06:33:41;;;;;;;;;3.75;2.75;;;;;16.28;62.75;99732.03;5074217;28;45590;-60
2022/06/10 06:36:13;;;;;;;;;3.75;3.75;;;;;16.33;62.54;99736.19;5065615;28;46353;-60
2022/06/10 06:38:40;;;;;;;;;2.80;2.80;;;;;16.39;62.28;99733.22;5074221;28;45408;-61
2022/06/10 06:41:06;;;;;;;;;3.00;3.00;;;;;16.46;61.99;99730.19;5046912;28;45563;-61
2022/06/10 06:43:31;;;;;;;;;6.25;3.25;;;;;16.50;62.02;99724.63;5073458;28;45457;-60
2022/06/10 06:45:57;;;;;;;;;6.50;5.50;;;;;16.55;61.43;99729.72;5068165;28;46135;-60
2022/06/10 06:48:22;;;;;;;;;4.00;2.00;;;;;16.60;61.76;99725.81;5056090;28;45771;-60
2022/06/10 06:50:49;;;;;;;;;5.75;5.00;;;;;16.67;61.21;99729.06;5065540;28;45450;-60
2022/06/10 06:53:15;;;;;;;;;5.00;4.00;;;;;16.73;61.20;99736.72;5072865;28;45375;-61
2022/06/10 06:55:41;;;;;;;;;5.00;3.00;;;;;16.79;61.08;99732.84;5062675;28;45510;-60
2022/06/10 06:58:11;;;;;;;;;3.50;3.25;;;;;16.84;60.91;99730.78;5035146;28;45519;-60
2022/06/10 07:00:37;;;;;;;;;4.50;4.50;;;;;16.87;60.98;99742.13;5059309;28;45461;-60
2022/06/10 07:03:04;;;;;;;;;3.25;2.75;;;;;16.92;60.71;99745.41;5073422;28;45367;-59
2022/06/10 07:05:31;;;;;;;;;3.25;2.25;;;;;16.94;60.35;99746.16;5067861;28;46120;-62
2022/06/10 07:07:56;;;;;;;;;5.00;4.60;;;;;16.96;60.20;99751.41;5064449;28;45452;-59
2022/06/10 07:10:23;;;;;;;;;6.50;3.00;;;;;16.97;60.18;99748.66;5068119;28;45487;-61
2022/06/10 07:12:49;;;;;;;;;4.00;4.00;;;;;16.98;60.17;99747.69;5064324;28;45516;-61
2022/06/10 07:15:14;;;;;;;;;3.00;3.00;;;;;17.00;59.81;99750.28;5067441;28;45638;-60
2022/06/10 07:17:41;;;;;;;;;2.00;2.00;;;;;17.03;59.91;99752.78;5063028;28;45470;-61
2022/06/10 07:20:10;;;;;;;;;2.50;2.00;;;;;17.02;59.59;99746.59;5071105;28;45534;-59
2022/06/10 07:22:36;;;;;;;;;3.00;2.25;;;;;17.02;59.50;99743.94;5066144;28;45543;-60
2022/06/10 07:25:02;;;;;;;;;2.00;2.00;;;;;17.05;59.12;99737.56;5069225;28;46176;-60
2022/06/10 07:27:27;;;;;;;;;7.00;3.00;;;;;17.08;57.98;99740.94;5065247;28;45423;-61
2022/06/10 07:29:52;;;;;;;;;3.25;2.00;;;;;17.08;56.91;99734.75;5072135;28;45474;-61
2022/06/10 07:32:18;;;;;;;;;2.75;2.00;;;;;17.08;56.31;99732.94;5070957;28;45415;-61
2022/06/10 07:34:43;;;;;;;;;3.75;2.25;;;;;17.11;57.98;99726.53;5070186;28;46523;-61
2022/06/10 07:37:09;;;;;;;;;3.00;3.00;;;;;17.18;57.37;99727.06;5065032;28;45496;-61
2022/06/10 07:39:35;;;;;;;;;1.50;1.50;;;;;17.22;57.16;99726.81;5069852;28;45246;-61
2022/06/10 07:42:02;;;;;;;;;5.75;5.00;;;;;17.29;57.37;99735.28;5065520;28;45373;-61
2022/06/10 07:44:31;;;;;;;;;3.75;3.00;;;;;17.34;55.97;99723.44;5058599;28;45430;-61
2022/06/10 07:46:59;;;;;;;;;2.00;2.00;;;;;17.42;55.96;99726.53;5055683;28;45526;-61
2022/06/10 07:49:25;;;;;;;;;1.00;1.00;;;;;17.47;55.66;99722.69;5070796;28;45403;-61
2022/06/10 07:51:51;;;;;;;;;2.00;2.00;;;;;17.50;55.06;99730.53;5066996;28;45362;-60
2022/06/10 07:54:17;;;;;;;;;3.00;3.00;;;;;17.54;55.53;99718.75;5069124;28;45612;-60
2022/06/10 07:56:42;;;;;;;;;2.50;2.25;;;;;17.62;55.15;99727.13;5067918;28;45527;-61
2022/06/10 07:59:08;;;;;;;;;4.50;3.25;;;;;17.68;55.17;99719.66;5048357;28;45244;-59
2022/06/10 08:01:34;;;;;;;;;3.00;2.50;;;;;17.70;54.02;99725.78;5071156;28;45344;-61
2022/06/10 08:04:00;;;;;;;;;2.25;2.00;;;;;17.74;54.07;99726.47;5070157;28;45386;-61
2022/06/10 08:06:28;;;;;;;;;1.50;1.25;;;;;17.78;54.25;99717.28;5055724;28;45452;-61
2022/06/10 08:08:54;;;;;;;;;2.20;2.20;;;;;17.86;54.77;99723.03;5061327;28;45582;-61
2022/06/10 08:11:20;;;;;;;;;4.00;2.75;;;;;17.93;54.07;99716.38;5069392;28;45330;-61
2022/06/10 08:13:46;;;;;;;;;2.75;2.50;;;;;17.98;53.45;99724.97;5066270;28;46697;-61
2022/06/10 08:16:13;;;;;;;;;2.00;2.00;;;;;18.00;54.25;99714.19;5070931;28;45480;-61
2022/06/10 08:18:39;;;;;;;;;4.75;1.75;;;;;18.07;54.31;99710.22;5063115;28;45378;-60
2022/06/10 08:23:49;;;;;;;;;6.20;4.20;;;;;18.26;54.09;99709.94;5063125;28;45771;-60
2022/06/10 08:26:16;;;;;;;;;3.00;3.00;;;;;18.34;54.48;99716.50;5072857;28;45498;-60
2022/06/10 08:28:44;;;;;;;;;4.50;4.00;;;;;18.42;54.38;99710.69;5076493;28;45491;-60
2022/06/10 08:31:10;;;;;;;;;2.25;2.25;;;;;18.47;54.06;99714.78;5071504;28;45479;-60
2022/06/10 08:33:35;;;;;;;;;12.25;11.50;;;;;18.55;53.62;99716.97;5075488;28;46986;-61
2022/06/10 08:36:03;;;;;;;;;3.00;2.00;;;;;18.62;53.13;99717.47;5070872;28;45428;-60
2022/06/10 08:38:29;;;;;;;;;3.50;3.50;;;;;18.66;53.05;99703.81;5075053;28;45369;-61
2022/06/10 08:41:06;;;;;;;;;3.00;1.50;;;;;18.71;52.17;99703.53;5070443;28;45340;-61
2022/06/10 08:44:04;;;;;;;;;4.80;3.00;;;;;18.79;51.66;99707.41;5060416;28;45695;-61
2022/06/10 08:46:37;;;;;;;;;4.20;2.00;;;;;18.85;51.71;99691.94;5069265;28;45485;-61
2022/06/10 08:49:17;;;;;;;;;0.80;0.80;;;;;18.93;51.69;99697.66;5076701;28;45403;-61
2022/06/10 08:51:45;;;;;;;;;2.40;2.40;;;;;18.99;50.99;99707.94;5071157;28;45445;-61
2022/06/10 08:54:28;;;;;;;;;2.00;1.20;;;;;19.00;52.17;99699.81;5075568;28;46526;-61
2022/06/10 08:57:02;;;;;;;;;1.60;1.00;;;;;19.02;50.85;99697.06;5072340;28;45440;-60
2022/06/10 08:59:34;;;;;;;;;1.40;1.40;;;;;19.05;49.91;99705.72;5074058;28;45447;-60
2022/06/10 09:02:40;;;;;;;;;2.00;2.00;;;;;19.10;50.26;99690.22;5048588;28;45433;-60
2022/06/10 09:05:11;;;;;;;;;2.20;2.00;;;;;19.21;50.18;99699.38;4983285;28;46386;-60
2022/06/10 09:07:51;;;;;;;;;3.00;3.00;;;;;19.28;51.17;99689.97;4976753;28;45666;-61
2022/06/10 09:10:42;;;;;;;;;5.00;3.80;;;;;19.37;50.97;99690.22;5028609;28;45434;-60
2022/06/10 09:13:21;;;;;;;;;2.25;2.25;;;;;19.46;51.15;99691.41;5068032;28;45441;-60
2022/06/10 09:15:54;;;;;;;;;4.00;3.00;;;;;19.52;51.09;99702.59;5071177;28;45407;-60
2022/06/10 09:18:43;;;;;;;;;4.40;4.40;;;;;19.59;49.56;99694.16;5069192;28;45380;-61
2022/06/10 09:21:21;;;;;;;;;5.50;4.25;;;;;19.66;50.01;99700.81;5067371;28;45799;-61
2022/06/10 09:23:47;;;;;;;;;3.00;3.00;;;;;19.73;48.36;99710.13;5068022;28;45498;-61
2022/06/10 09:26:24;;;;;;;;;4.50;2.75;;;;;19.75;49.01;99693.03;5070426;28;46407;-61
2022/06/10 09:28:50;;;;;;;;;4.00;2.00;;;;;19.80;49.07;99696.22;5074842;28;45511;-61
2022/06/10 09:31:41;;;;;;;;;4.75;3.75;;;;;19.87;48.74;99696.66;5068853;28;45628;-61
2022/06/10 09:34:22;;;;;;;;;3.25;3.25;;;;;19.91;49.73;99692.81;5049369;28;45573;-61
2022/06/10 09:37:02;;;;;;;;;1.60;1.60;;;;;19.94;48.30;99714.00;5066424;28;46551;-61
2022/06/10 09:42:54;;;;;;;;;3.80;3.80;;;;;19.96;48.62;99700.50;5066746;28;45438;-61
2022/06/10 09:45:22;;;;;;;;;4.00;3.00;;;;;19.98;48.68;99690.56;5068992;28;45437;-61
2022/06/10 09:48:06;;;;;;;;;4.40;3.40;;;;;20.00;47.72;99688.63;5075286;28;46165;-61
2022/06/10 09:50:40;;;;;;;;;3.20;3.20;;;;;20.04;49.12;99674.94;5049102;28;45482;-61
2022/06/10 09:53:27;;;;;;;;;3.00;3.00;;;;;20.08;47.74;99695.19;5073505;28;45423;-61
2022/06/10 09:56:02;;;;;;;;;2.40;2.00;;;;;20.10;47.52;99685.22;5067244;28;45506;-61
2022/06/10 09:58:45;;;;;;;;;3.00;3.00;;;;;20.14;48.23;99684.03;5072231;28;46334;-61
2022/06/10 10:01:23;;;;;;;;;3.80;3.80;;;;;20.17;48.95;99677.59;5069290;28;45440;-61
2022/06/10 10:03:54;;;;;;;;;4.00;2.80;;;;;20.24;48.69;99688.75;5067696;28;45390;-62
2022/06/10 10:06:57;;;;;;;;;1.60;1.20;;;;;20.30;47.97;99697.19;5069172;28;45490;-61
2022/06/10 10:09:57;;;;;;;;;4.00;3.00;;;;;20.33;47.98;99667.50;5074045;28;45535;-61
2022/06/10 10:12:46;;;;;;;;;4.20;3.00;;;;;20.41;46.73;99667.88;5059491;28;45526;-61
2022/06/10 10:15:14;;;;;;;;;2.80;2.00;;;;;20.46;47.28;99683.59;5056249;28;45504;-61
2022/06/10 10:18:08;;;;;;;;;5.20;3.00;;;;;20.51;47.56;99679.63;5057330;28;45443;-61
2022/06/10 10:20:43;;;;;;;;;4.60;3.00;;;;;20.58;47.58;99689.91;5060685;28;45674;-61
2022/06/10 10:23:19;;;;;;;;;2.40;2.40;;;;;20.64;47.48;99681.41;5071460;28;45391;-61
2022/06/10 10:25:46;;;;;;;;;3.00;2.80;;;;;20.68;47.13;99689.13;5068685;28;45486;-61
2022/06/10 10:28:25;;;;;;;;;3.40;3.40;;;;;20.74;46.84;99677.97;5054391;28;45411;-61
2022/06/10 10:31:29;;;;;;;;;2.80;1.80;;;;;20.84;47.09;99668.25;5068162;28;46252;-61
2022/06/10 10:33:55;;;;;;;;;2.00;2.00;;;;;20.93;45.83;99682.81;5061823;28;45287;-61
2022/06/10 10:36:44;;;;;;;;;3.50;1.00;;;;;20.97;45.68;99686.13;5071668;28;45436;-61
2022/06/10 10:39:35;;;;;;;;;3.60;2.80;;;;;21.01;45.83;99667.00;5062489;28;45513;-61
2022/06/10 10:42:05;;;;;;;;;3.00;3.00;;;;;21.14;47.17;99661.59;5058620;28;45582;-61
2022/06/10 10:44:30;;;;;;;;;6.80;4.00;;;;;21.29;45.44;99691.78;5062991;28;45524;-60
2022/06/10 10:47:10;;;;;;;;;4.00;3.00;;;;;21.33;45.16;99683.41;5065687;28;45359;-59
2022/06/10 10:50:16;;;;;;;;;5.25;5.25;;;;;21.38;46.13;99661.59;5073070;28;45591;-60
2022/06/10 10:52:44;;;;;;;;;3.00;3.00;;;;;21.46;45.95;99660.03;5065489;28;46949;-60
2022/06/10 10:55:12;;;;;;;;;2.80;2.80;;;;;21.51;44.76;99676.66;5068716;28;45459;-59
2022/06/10 10:57:43;;;;;;;;;2.60;2.60;;;;;21.53;45.74;99657.75;5069929;28;45515;-61
2022/06/10 11:00:14;;;;;;;;;5.00;3.25;;;;;21.58;45.17;99671.69;5069874;28;45385;-60
2022/06/10 11:02:41;;;;;;;;;0.00;0.00;;;;;21.62;44.68;99666.94;5071723;28;46478;-60
2022/06/10 11:05:16;;;;;;;;;2.60;2.60;;;;;21.65;45.25;99667.53;5069989;28;45474;-60
2022/06/10 11:07:43;;;;;;;;;2.00;2.00;;;;;21.67;44.53;99668.28;5069446;28;45435;-60
2022/06/10 11:10:25;;;;;;;;;2.00;2.00;;;;;21.72;44.46;99665.25;5068436;28;45411;-61
2022/06/10 11:12:51;;;;;;;;;2.00;2.00;;;;;21.76;44.31;99650.63;5067387;28;45517;-62
2022/06/10 11:15:29;;;;;;;;;3.60;3.60;;;;;21.80;45.29;99652.06;5072184;28;45426;-60
2022/06/10 11:17:57;;;;;;;;;3.80;3.80;;;;;21.89;44.86;99646.00;5074038;28;45477;-60
2022/06/10 11:20:36;;;;;;;;;2.20;2.20;;;;;22.03;44.63;99653.00;5070502;28;45441;-62
2022/06/10 11:23:24;;;;;;;;;1.60;1.60;;;;;22.08;44.02;99640.94;5073589;28;45519;-61
2022/06/10 11:26:17;;;;;;;;;3.00;3.00;;;;;22.11;44.16;99643.38;5066560;28;45481;-61
2022/06/10 11:28:43;;;;;;;;;3.40;3.00;;;;;22.17;44.28;99639.31;5071944;28;45460;-61
2022/06/10 11:31:19;;;;;;;;;5.00;3.00;;;;;22.21;43.93;99638.97;5065165;28;45481;-61
2022/06/10 11:33:47;;;;;;;;;3.60;3.00;;;;;22.26;44.93;99633.25;5072982;28;45680;-61
2022/06/10 11:36:22;;;;;;;;;3.40;3.40;;;;;22.34;44.89;99628.09;5069112;28;45453;-60
2022/06/10 11:39:14;;;;;;;;;1.00;1.00;;;;;22.43;43.21;99634.56;5072755;28;45369;-60
2022/06/10 11:41:40;;;;;;;;;5.80;2.80;;;;;22.46;42.53;99639.66;5065965;28;45459;-60
2022/06/10 11:44:20;;;;;;;;;2.25;2.25;;;;;22.46;42.72;99626.22;5071927;28;45536;-60
2022/06/10 11:47:09;;;;;;;;;2.80;2.00;;;;;22.46;42.22;99628.91;5067897;28;45660;-61
2022/06/10 11:49:43;;;;;;;;;3.00;2.40;;;;;22.51;42.05;99624.03;5072441;28;45484;-60
2022/06/10 11:52:18;;;;;;;;;2.40;2.40;;;;;22.57;42.11;99604.75;5067348;28;45471;-61
2022/06/10 11:54:51;;;;;;;;;2.00;2.00;;;;;22.62;42.03;99591.78;5070609;28;45438;-60
2022/06/10 12:00:50;;;;;;;;;2.00;2.00;;;;;22.71;41.67;99591.00;5070046;28;45377;-61
2022/06/10 12:03:34;;;;;;;;;1.00;1.00;;;;;22.75;41.86;99583.56;5074076;28;45434;-62
2022/06/10 12:06:20;;;;;;;;;1.00;1.00;;;;;22.84;40.76;99574.75;5067016;28;46176;-62
2022/06/10 12:08:54;;;;;;;;;2.80;2.80;;;;;22.95;41.51;99577.41;5066886;28;45478;-62
2022/06/10 12:11:38;;;;;;;;;2.20;2.20;;;;;23.06;40.33;99576.50;5052383;28;45430;-61